Time;durP1;ratioP1;P1;durP2;ratioP2;P2;SDS_P1;SDS_P2;PMS_P1;PMS_P2;Temp;Humidity;BMP_temperature;BMP_pressure;BME280_temperature;BME280_humidity;BME280_pressure;Samples;Min_cycle;Max_cycle;Signal;HPM_P1;HPM_P2
2022/01/17 00:00:56;;;;;;;57.90;26.90;;;5.70;99.90;;;;;;2608990;54;20916;-80
2022/01/17 00:03:24;;;;;;;63.23;29.60;;;5.80;99.90;;;;;;2609836;54;20411;-79
2022/01/17 00:05:51;;;;;;;44.27;21.93;;;5.80;99.90;;;;;;2610131;47;21218;-80
2022/01/17 00:08:19;;;;;;;58.47;28.17;;;5.70;99.90;;;;;;2613510;54;20495;-79
2022/01/17 00:10:46;;;;;;;52.50;24.10;;;5.80;99.90;;;;;;2614069;54;20403;-80
2022/01/17 00:13:22;;;;;;;43.40;23.70;;;5.80;99.90;;;;;;2612363;47;20424;-80
2022/01/17 00:15:51;;;;;;;57.57;29.87;;;5.80;99.90;;;;;;2611432;54;21014;-79
2022/01/17 00:20:46;;;;;;;43.77;25.83;;;5.80;99.90;;;;;;2614297;54;20392;-79
2022/01/17 00:23:13;;;;;;;60.17;30.87;;;5.80;99.90;;;;;;2614428;49;20708;-80
2022/01/17 00:25:38;;;;;;;57.13;31.87;;;5.90;99.90;;;;;;2615581;54;20456;-80
2022/01/17 00:28:04;;;;;;;78.53;34.73;;;5.90;99.90;;;;;;2614159;54;20407;-79
2022/01/17 00:30:30;;;;;;;52.23;25.13;;;6.00;99.90;;;;;;2608765;54;20715;-79
2022/01/17 00:32:57;;;;;;;47.97;20.63;;;5.90;99.90;;;;;;2611309;54;20415;-79
2022/01/17 00:35:24;;;;;;;71.87;31.90;;;5.80;99.90;;;;;;2614323;54;20396;-79
2022/01/17 00:37:51;;;;;;;39.47;23.60;;;5.80;99.90;;;;;;2614952;54;20451;-77
2022/01/17 00:40:18;;;;;;;63.47;30.63;;;5.80;99.90;;;;;;2614688;54;21048;-78
2022/01/17 00:42:44;;;;;;;53.67;27.23;;;5.90;99.90;;;;;;2615135;39;21312;-80
2022/01/17 00:45:13;;;;;;;54.33;26.03;;;5.90;99.90;;;;;;2614083;54;20410;-79
2022/01/17 00:47:40;;;;;;;41.83;22.30;;;5.90;99.90;;;;;;2615346;47;20154;-80
2022/01/17 00:50:06;;;;;;;45.77;24.30;;;5.90;99.90;;;;;;2613973;54;20424;-78
2022/01/17 00:52:32;;;;;;;61.10;29.93;;;5.90;99.90;;;;;;2610301;46;20451;-77
2022/01/17 00:54:58;;;;;;;38.17;23.90;;;6.00;99.90;;;;;;2614780;54;20403;-80
2022/01/17 00:57:24;;;;;;;47.93;22.50;;;5.90;99.90;;;;;;2614087;47;20178;-79
2022/01/17 00:59:50;;;;;;;50.20;27.10;;;5.90;99.90;;;;;;2614402;54;20523;-77
2022/01/17 01:02:16;;;;;;;48.37;22.40;;;6.00;99.90;;;;;;2614957;31;20966;-80
2022/01/17 01:04:42;;;;;;;39.63;22.73;;;6.00;99.90;;;;;;2613099;54;20470;-79
2022/01/17 01:07:09;;;;;;;48.97;28.40;;;6.00;99.90;;;;;;2611658;47;20427;-79
2022/01/17 01:09:44;;;;;;;47.20;26.60;;;6.00;99.90;;;;;;2614609;54;20238;-80
2022/01/17 01:12:11;;;;;;;23.80;9.30;;;6.00;99.90;;;;;;2614663;54;20414;-78
2022/01/17 01:14:40;;;;;;;39.13;21.23;;;6.00;99.90;;;;;;2613064;54;20405;-77
2022/01/17 01:17:14;;;;;;;47.33;28.17;;;5.90;99.90;;;;;;2613245;47;20432;-80
2022/01/17 01:19:42;;;;;;;35.63;19.60;;;5.90;99.90;;;;;;2615222;39;21148;-77
2022/01/17 01:27:44;;;;;;;39.83;18.63;;;5.90;99.90;;;;;;2610734;54;20424;-79
2022/01/17 01:30:12;;;;;;;38.47;23.20;;;5.80;99.90;;;;;;2608655;54;20404;-78
2022/01/17 01:32:45;;;;;;;56.87;27.90;;;5.80;99.90;;;;;;2613153;46;20423;-79
2022/01/17 01:35:15;;;;;;;41.87;23.93;;;5.80;99.90;;;;;;2615179;54;20452;-78
2022/01/17 01:37:43;;;;;;;56.83;28.73;;;5.80;99.90;;;;;;2613888;54;20379;-79
2022/01/17 01:40:10;;;;;;;60.90;27.20;;;5.80;99.90;;;;;;2610934;47;20459;-80
2022/01/17 01:42:36;;;;;;;55.77;30.60;;;5.80;99.90;;;;;;2613197;54;20414;-78
2022/01/17 01:45:05;;;;;;;52.77;27.67;;;5.90;99.90;;;;;;2613453;47;21079;-79
2022/01/17 01:47:31;;;;;;;39.03;22.40;;;5.90;99.90;;;;;;2612138;51;20200;-78
2022/01/17 01:49:58;;;;;;;53.87;28.73;;;5.90;99.90;;;;;;2611855;47;21089;-78
2022/01/17 01:52:24;;;;;;;56.57;33.17;;;5.90;99.90;;;;;;2612187;48;20973;-79
2022/01/17 01:54:50;;;;;;;52.63;30.37;;;5.90;99.90;;;;;;2614169;47;20451;-80
2022/01/17 01:57:16;;;;;;;65.47;33.07;;;6.00;99.90;;;;;;2613976;54;20147;-80
2022/01/17 01:59:42;;;;;;;58.20;28.17;;;6.10;99.90;;;;;;2611191;54;20535;-80
2022/01/17 02:02:08;;;;;;;63.03;30.93;;;6.10;99.90;;;;;;2614396;54;20455;-76
2022/01/17 02:04:34;;;;;;;63.57;30.23;;;6.00;99.90;;;;;;2615488;54;20465;-78
2022/01/17 02:07:00;;;;;;;60.33;31.23;;;6.00;99.90;;;;;;2616013;54;20522;-77
2022/01/17 02:09:26;;;;;;;52.33;24.40;;;5.90;99.90;;;;;;2615398;54;20417;-76
2022/01/17 02:11:52;;;;;;;28.27;16.27;;;5.90;99.90;;;;;;2615302;39;20562;-77
2022/01/17 02:14:20;;;;;;;70.10;31.53;;;5.90;99.90;;;;;;2614706;47;20416;-76
2022/01/17 02:16:48;;;;;;;57.93;29.43;;;5.90;99.90;;;;;;2614648;54;20567;-76
2022/01/17 02:19:21;;;;;;;47.97;25.20;;;5.90;99.90;;;;;;2612863;54;20948;-75
2022/01/17 02:21:49;;;;;;;44.90;24.83;;;5.90;99.90;;;;;;2613916;54;20499;-76
2022/01/17 02:24:18;;;;;;;62.63;30.47;;;5.90;99.90;;;;;;2612226;54;20392;-76
2022/01/17 02:26:46;;;;;;;49.63;27.80;;;5.90;99.90;;;;;;2613893;47;20497;-76
2022/01/17 02:29:14;;;;;;;68.17;32.70;;;5.90;99.90;;;;;;2611095;54;20442;-76
2022/01/17 02:31:40;;;;;;;69.93;33.40;;;5.90;99.90;;;;;;2612428;47;20949;-76
2022/01/17 02:34:08;;;;;;;67.33;31.40;;;6.00;99.90;;;;;;2614977;54;21304;-77
2022/01/17 02:36:34;;;;;;;70.83;35.90;;;6.00;99.90;;;;;;2614388;47;20451;-75
2022/01/17 02:39:02;;;;;;;58.43;30.93;;;6.00;99.90;;;;;;2615671;39;20853;-76
2022/01/17 02:41:29;;;;;;;63.40;33.97;;;6.00;99.90;;;;;;2614995;54;20428;-78
2022/01/17 02:44:00;;;;;;;54.27;26.47;;;6.00;99.90;;;;;;2614070;47;20458;-76
2022/01/17 02:46:27;;;;;;;49.43;28.03;;;5.90;99.90;;;;;;2614951;54;20487;-75
2022/01/17 02:49:00;;;;;;;46.10;24.30;;;5.90;99.90;;;;;;2616107;54;20482;-76
2022/01/17 02:51:26;;;;;;;59.27;25.90;;;5.90;99.90;;;;;;2614835;54;20982;-75
2022/01/17 02:53:53;;;;;;;41.63;26.87;;;5.90;99.90;;;;;;2614736;54;20422;-75
2022/01/17 02:56:19;;;;;;;45.53;24.73;;;6.00;99.90;;;;;;2613910;47;20540;-75
2022/01/17 02:58:45;;;;;;;72.73;33.07;;;5.90;99.90;;;;;;2614052;54;20396;-75
2022/01/17 03:01:24;;;;;;;67.80;33.30;;;6.00;99.90;;;;;;2613786;54;20443;-76
2022/01/17 03:03:50;;;;;;;52.97;29.33;;;5.90;99.90;;;;;;2612314;54;20468;-75
2022/01/17 03:06:18;;;;;;;60.60;26.13;;;5.90;99.90;;;;;;2614636;54;21008;-76
2022/01/17 03:08:45;;;;;;;47.87;26.20;;;6.00;99.90;;;;;;2615494;54;20415;-76
2022/01/17 03:11:15;;;;;;;49.53;24.93;;;5.90;99.90;;;;;;2614438;54;20551;-76
2022/01/17 03:13:41;;;;;;;65.23;32.80;;;6.00;99.90;;;;;;2615224;54;20418;-76
2022/01/17 03:16:14;;;;;;;40.83;21.80;;;5.90;99.90;;;;;;2614357;54;20458;-75
2022/01/17 03:18:44;;;;;;;59.37;31.30;;;5.90;99.90;;;;;;2614734;39;20838;-76
2022/01/17 03:21:11;;;;;;;76.03;34.80;;;6.00;99.90;;;;;;2614487;54;20446;-76
2022/01/17 03:23:38;;;;;;;54.17;23.60;;;6.10;99.90;;;;;;2614716;54;20494;-75
2022/01/17 03:26:05;;;;;;;53.27;29.90;;;6.00;99.90;;;;;;2614996;47;20523;-76
2022/01/17 03:28:32;;;;;;;69.07;35.67;;;6.00;99.90;;;;;;2614794;39;20498;-77
2022/01/17 03:30:58;;;;;;;66.00;30.63;;;6.00;99.90;;;;;;2612105;54;20423;-76
2022/01/17 03:33:25;;;;;;;49.03;21.73;;;6.00;99.90;;;;;;2617036;39;20892;-76
2022/01/17 03:35:51;;;;;;;65.97;35.00;;;6.10;99.90;;;;;;2616440;47;20406;-76
2022/01/17 03:38:20;;;;;;;56.70;29.63;;;6.00;99.90;;;;;;2613921;54;20385;-77
2022/01/17 03:40:49;;;;;;;60.90;32.13;;;6.10;99.90;;;;;;2614906;54;20431;-76
2022/01/17 03:43:15;;;;;;;54.57;31.90;;;6.10;99.90;;;;;;2616011;54;20411;-76
2022/01/17 03:45:43;;;;;;;65.93;33.40;;;6.10;99.90;;;;;;2616322;47;20439;-76
2022/01/17 03:48:09;;;;;;;32.00;19.03;;;6.00;99.90;;;;;;2614562;54;20412;-76
2022/01/17 03:50:36;;;;;;;59.90;35.17;;;6.00;99.90;;;;;;2614289;46;20907;-76
2022/01/17 03:53:03;;;;;;;42.23;22.43;;;6.00;99.90;;;;;;2614850;51;20435;-76
2022/01/17 03:55:32;;;;;;;30.50;17.20;;;6.00;99.90;;;;;;2616273;46;20477;-76
2022/01/17 03:57:58;;;;;;;57.13;29.00;;;6.00;99.90;;;;;;2616234;54;20423;-77
2022/01/17 04:00:29;;;;;;;61.07;30.90;;;6.00;99.90;;;;;;2615759;46;20437;-76
2022/01/17 04:02:55;;;;;;;57.43;30.27;;;6.00;99.90;;;;;;2613854;47;20431;-75
2022/01/17 04:05:22;;;;;;;58.93;30.00;;;6.00;99.90;;;;;;2614233;54;20428;-76
2022/01/17 04:07:47;;;;;;;54.37;28.93;;;6.00;99.90;;;;;;2616282;54;20396;-76
2022/01/17 04:10:14;;;;;;;74.47;33.50;;;6.00;99.90;;;;;;2616978;31;20864;-76
2022/01/17 04:12:42;;;;;;;50.23;28.40;;;6.00;99.90;;;;;;2616577;54;20400;-76
2022/01/17 04:15:09;;;;;;;54.00;26.07;;;6.00;99.90;;;;;;2616456;54;20480;-76
2022/01/17 04:17:35;;;;;;;44.53;23.97;;;6.00;99.90;;;;;;2616303;54;20972;-75
2022/01/17 04:20:08;;;;;;;45.07;20.80;;;6.10;99.90;;;;;;2616227;54;20395;-75
2022/01/17 04:22:38;;;;;;;57.10;25.90;;;6.00;99.90;;;;;;2614696;54;20406;-76
2022/01/17 04:25:06;;;;;;;56.93;30.53;;;6.10;99.90;;;;;;2615227;47;20423;-75
2022/01/17 04:27:32;;;;;;;49.63;28.97;;;6.10;99.90;;;;;;2613591;54;20427;-76
2022/01/17 04:29:58;;;;;;;45.10;25.97;;;6.10;99.90;;;;;;2611109;39;21050;-76
2022/01/17 04:32:25;;;;;;;48.37;29.73;;;6.10;99.90;;;;;;2615778;46;20424;-75
2022/01/17 04:34:52;;;;;;;38.10;20.30;;;6.10;99.90;;;;;;2615055;54;20458;-75
2022/01/17 04:37:18;;;;;;;46.87;21.47;;;6.00;99.90;;;;;;2615945;54;20956;-75
2022/01/17 04:39:45;;;;;;;51.80;29.07;;;6.00;99.90;;;;;;2615895;54;20410;-76
2022/01/17 04:42:12;;;;;;;35.77;20.17;;;6.10;99.90;;;;;;2613341;54;20395;-77
2022/01/17 04:47:29;;;;;;;44.33;22.33;;;6.10;99.90;;;;;;2615473;54;20377;-75
2022/01/17 04:49:55;;;;;;;48.83;27.90;;;6.10;99.90;;;;;;2614837;47;21042;-75
2022/01/17 04:52:21;;;;;;;61.63;27.40;;;6.10;99.90;;;;;;2613654;54;20471;-75
2022/01/17 04:54:53;;;;;;;46.37;26.27;;;6.10;99.90;;;;;;2615194;47;20431;-75
2022/01/17 04:57:20;;;;;;;39.03;18.60;;;6.00;99.90;;;;;;2613754;54;20418;-76
2022/01/17 04:59:47;;;;;;;44.50;20.10;;;6.00;99.90;;;;;;2614425;46;21266;-75
2022/01/17 05:02:13;;;;;;;46.43;24.20;;;6.00;99.90;;;;;;2614135;54;20424;-75
2022/01/17 05:04:40;;;;;;;42.93;25.10;;;6.00;99.90;;;;;;2614698;47;20424;-76
2022/01/17 05:07:06;;;;;;;29.63;17.97;;;6.00;99.90;;;;;;2613823;39;20761;-75
2022/01/17 05:09:33;;;;;;;29.67;14.47;;;6.00;99.90;;;;;;2613551;54;20419;-75
2022/01/17 05:11:59;;;;;;;27.03;16.63;;;6.00;99.90;;;;;;2613807;54;20410;-75
2022/01/17 05:14:28;;;;;;;26.10;15.33;;;6.10;99.90;;;;;;2614186;47;20432;-75
2022/01/17 05:17:02;;;;;;;24.93;15.63;;;6.10;99.90;;;;;;2612486;54;20502;-75
2022/01/17 05:22:12;;;;;;;37.03;18.80;;;6.10;99.90;;;;;;2613749;47;20412;-77
2022/01/17 05:24:38;;;;;;;26.87;14.50;;;6.10;99.90;;;;;;2616526;54;20437;-76
2022/01/17 05:27:04;;;;;;;41.43;20.10;;;6.10;99.90;;;;;;2612725;54;20143;-76
2022/01/17 05:29:30;;;;;;;30.33;17.90;;;6.10;99.90;;;;;;2610181;47;21031;-76
2022/01/17 05:31:56;;;;;;;33.20;16.60;;;6.10;99.90;;;;;;2614207;54;20454;-76
2022/01/17 05:34:22;;;;;;;27.43;14.63;;;6.10;99.90;;;;;;2614073;47;20167;-75
2022/01/17 05:36:48;;;;;;;20.67;11.00;;;6.10;99.90;;;;;;2615304;47;20435;-75
2022/01/17 05:39:15;;;;;;;23.50;16.27;;;6.10;99.90;;;;;;2615368;54;20411;-76
2022/01/17 05:41:41;;;;;;;29.57;11.30;;;6.10;99.90;;;;;;2615941;54;20132;-75
2022/01/17 05:44:07;;;;;;;20.63;10.93;;;6.10;99.90;;;;;;2614198;54;20387;-76
2022/01/17 05:46:33;;;;;;;35.73;16.00;;;6.10;99.90;;;;;;2614055;54;20412;-76
2022/01/17 05:48:59;;;;;;;34.57;16.17;;;6.10;99.90;;;;;;2615258;39;20599;-77
2022/01/17 05:51:25;;;;;;;33.43;15.27;;;6.10;99.90;;;;;;2613239;54;20419;-76
2022/01/17 05:53:51;;;;;;;34.97;12.17;;;6.10;99.90;;;;;;2614353;54;20511;-77
2022/01/17 05:56:17;;;;;;;16.13;11.70;;;6.10;99.90;;;;;;2614322;54;20267;-76
2022/01/17 05:58:43;;;;;;;30.17;15.20;;;6.00;99.90;;;;;;2614683;47;20166;-76
2022/01/17 06:01:09;;;;;;;30.20;16.70;;;6.10;99.90;;;;;;2611714;47;20179;-76
2022/01/17 06:03:35;;;;;;;16.53;12.00;;;6.10;99.90;;;;;;2615324;54;20964;-77
2022/01/17 06:06:03;;;;;;;17.23;11.30;;;6.10;99.90;;;;;;2613312;47;20486;-76
2022/01/17 06:08:29;;;;;;;23.73;13.23;;;6.10;99.90;;;;;;2614845;54;20428;-76
2022/01/17 06:10:57;;;;;;;21.50;10.73;;;6.10;99.90;;;;;;2614222;54;21321;-75
2022/01/17 06:13:22;;;;;;;19.33;12.20;;;6.00;99.90;;;;;;2615890;54;20422;-75
2022/01/17 06:15:48;;;;;;;17.53;11.20;;;6.00;99.90;;;;;;2614808;54;20455;-76
2022/01/17 06:18:14;;;;;;;29.43;15.60;;;6.00;99.90;;;;;;2615233;54;20403;-76
2022/01/17 06:20:40;;;;;;;26.80;12.60;;;6.00;99.90;;;;;;2615135;54;20163;-76
2022/01/17 06:23:06;;;;;;;22.50;13.20;;;6.00;99.90;;;;;;2616065;54;20161;-75
2022/01/17 06:25:34;;;;;;;29.17;16.07;;;6.00;99.90;;;;;;2610819;54;20146;-75
2022/01/17 06:28:00;;;;;;;18.87;12.20;;;6.10;99.90;;;;;;2610923;54;20427;-77
2022/01/17 06:30:27;;;;;;;34.40;17.97;;;6.00;99.90;;;;;;2611812;47;20446;-79
2022/01/17 06:32:53;;;;;;;23.27;15.20;;;6.10;99.90;;;;;;2611962;54;20956;-75
2022/01/17 06:35:19;;;;;;;34.07;14.63;;;6.10;99.90;;;;;;2611084;54;20443;-77
2022/01/17 06:37:48;;;;;;;14.53;10.90;;;6.10;99.90;;;;;;2614944;54;20403;-75
2022/01/17 06:40:15;;;;;;;20.57;10.90;;;6.10;99.90;;;;;;2613450;54;20948;-76
2022/01/17 06:42:42;;;;;;;21.67;14.90;;;6.20;99.90;;;;;;2614666;47;20563;-75
2022/01/17 06:45:09;;;;;;;23.50;14.97;;;6.20;99.90;;;;;;2611820;54;20439;-77
2022/01/17 06:47:37;;;;;;;22.17;11.10;;;6.30;99.90;;;;;;2610574;54;20417;-77
2022/01/17 06:50:08;;;;;;;20.83;12.40;;;6.10;99.90;;;;;;2607032;54;20412;-75
2022/01/17 06:52:35;;;;;;;21.03;12.50;;;6.10;99.90;;;;;;2609723;54;21100;-77
2022/01/17 06:55:02;;;;;;;21.17;11.20;;;6.10;99.90;;;;;;2609170;54;20941;-75
2022/01/17 06:57:28;;;;;;;23.10;14.60;;;6.10;99.90;;;;;;2609512;47;20422;-76
2022/01/17 06:59:55;;;;;;;24.23;13.97;;;6.10;99.90;;;;;;2610412;54;20961;-76
2022/01/17 07:02:21;;;;;;;22.10;10.10;;;6.20;99.90;;;;;;2610081;54;20415;-76
2022/01/17 07:04:48;;;;;;;18.77;12.07;;;6.10;99.90;;;;;;2608862;47;20458;-77
2022/01/17 07:07:14;;;;;;;21.47;9.87;;;6.10;99.90;;;;;;2610326;54;20515;-78
2022/01/17 07:09:40;;;;;;;20.70;13.13;;;6.00;99.90;;;;;;2608259;54;20427;-76
2022/01/17 07:12:07;;;;;;;24.07;14.80;;;6.00;99.90;;;;;;2609559;39;20821;-75
2022/01/17 07:14:32;;;;;;;22.20;13.27;;;6.00;99.90;;;;;;2609785;39;20563;-74
2022/01/17 07:16:58;;;;;;;40.00;13.87;;;5.90;99.90;;;;;;2609228;54;20453;-76
2022/01/17 07:19:25;;;;;;;18.50;10.20;;;5.90;99.90;;;;;;2610947;54;20151;-76
2022/01/17 07:21:51;;;;;;;27.13;15.17;;;5.80;99.90;;;;;;2610674;54;20384;-76
2022/01/17 07:24:18;;;;;;;24.60;14.33;;;5.80;99.90;;;;;;2610447;54;20415;-77
2022/01/17 07:26:43;;;;;;;27.27;15.10;;;5.70;99.90;;;;;;2610100;54;20408;-77
2022/01/17 07:29:09;;;;;;;31.50;16.13;;;5.60;99.90;;;;;;2610717;31;21168;-76
2022/01/17 07:31:36;;;;;;;31.07;16.57;;;5.60;99.90;;;;;;2610947;54;20240;-75
2022/01/17 07:34:03;;;;;;;32.60;12.63;;;5.60;99.90;;;;;;2610121;54;20435;-76
2022/01/17 07:36:29;;;;;;;24.80;15.37;;;5.70;99.90;;;;;;2610548;46;20463;-77
2022/01/17 07:38:58;;;;;;;24.37;15.00;;;5.80;99.90;;;;;;2610590;54;20557;-77
2022/01/17 07:41:26;;;;;;;20.57;9.77;;;5.80;99.90;;;;;;2608243;47;20463;-77
2022/01/17 07:43:53;;;;;;;21.47;13.20;;;5.80;99.90;;;;;;2608548;54;20396;-77
2022/01/17 07:46:33;;;;;;;32.27;15.70;;;5.80;99.90;;;;;;2609929;54;20456;-76
2022/01/17 07:49:10;;;;;;;7.20;6.47;;;5.90;99.90;;;;;;2609749;47;20426;-77
2022/01/17 07:51:40;;;;;;;21.03;13.27;;;5.90;99.90;;;;;;2610403;54;20430;-77
2022/01/17 07:54:08;;;;;;;24.93;13.90;;;5.90;99.90;;;;;;2615511;54;20427;-76
2022/01/17 07:56:35;;;;;;;21.87;12.87;;;6.00;99.90;;;;;;2608752;54;20423;-76
2022/01/17 07:59:01;;;;;;;23.67;12.57;;;6.10;99.90;;;;;;2609609;39;20835;-77
2022/01/17 08:01:27;;;;;;;16.57;10.50;;;6.00;99.90;;;;;;2609102;47;20491;-76
2022/01/17 08:03:53;;;;;;;27.30;12.37;;;6.00;99.90;;;;;;2610558;54;20434;-76
2022/01/17 08:06:19;;;;;;;14.33;9.90;;;6.00;99.90;;;;;;2614405;39;20753;-76
2022/01/17 08:08:45;;;;;;;20.80;12.77;;;6.10;99.90;;;;;;2608935;54;20515;-78
2022/01/17 08:11:12;;;;;;;24.50;14.30;;;6.10;99.90;;;;;;2609308;47;20548;-75
2022/01/17 08:13:38;;;;;;;24.70;16.70;;;6.10;99.90;;;;;;2609304;54;20259;-75
2022/01/17 08:16:04;;;;;;;30.03;17.63;;;6.20;99.90;;;;;;2611571;54;22320;-75
2022/01/17 08:18:30;;;;;;;23.43;14.57;;;6.20;99.90;;;;;;2615081;54;20170;-76
2022/01/17 08:20:55;;;;;;;28.90;19.70;;;6.30;99.90;;;;;;2615135;54;20403;-77
2022/01/17 08:23:21;;;;;;;30.53;18.57;;;6.30;99.90;;;;;;2615420;47;20542;-75
2022/01/17 08:25:47;;;;;;;27.63;18.20;;;6.30;99.90;;;;;;2614819;39;20539;-75
2022/01/17 08:28:13;;;;;;;27.03;18.60;;;6.30;99.90;;;;;;2615752;39;20593;-76
2022/01/17 08:30:39;;;;;;;25.33;16.13;;;6.30;99.90;;;;;;2609945;54;21066;-76
2022/01/17 08:33:05;;;;;;;29.97;17.27;;;6.40;99.90;;;;;;2609347;54;20408;-76
2022/01/17 08:35:31;;;;;;;26.17;19.03;;;6.40;99.90;;;;;;2611183;54;20411;-75
2022/01/17 08:37:57;;;;;;;39.33;21.30;;;6.40;99.90;;;;;;2611201;54;20407;-76
2022/01/17 08:40:24;;;;;;;29.40;21.10;;;6.40;99.90;;;;;;2610715;54;20131;-76
2022/01/17 08:42:50;;;;;;;24.17;16.37;;;6.50;99.90;;;;;;2610394;54;21333;-76
2022/01/17 08:45:19;;;;;;;25.93;18.87;;;6.50;99.90;;;;;;2609573;47;20435;-76
2022/01/17 08:47:49;;;;;;;36.07;23.90;;;6.50;99.90;;;;;;2609654;47;20587;-78
2022/01/17 08:50:17;;;;;;;39.43;25.20;;;6.50;99.90;;;;;;2611702;47;20535;-76
2022/01/17 08:52:47;;;;;;;34.10;24.40;;;6.60;99.90;;;;;;2612146;39;21792;-77
2022/01/17 08:55:16;;;;;;;32.30;21.00;;;6.70;99.90;;;;;;2611185;54;20400;-76
2022/01/17 08:57:42;;;;;;;33.83;20.50;;;6.70;99.90;;;;;;2612062;54;20467;-76
2022/01/17 09:00:13;;;;;;;43.87;25.57;;;6.60;99.90;;;;;;2610961;54;20423;-76
2022/01/17 09:02:39;;;;;;;49.13;25.07;;;6.60;99.90;;;;;;2611029;54;20399;-76
2022/01/17 09:05:07;;;;;;;47.80;27.73;;;6.60;99.90;;;;;;2610728;47;20427;-76
2022/01/17 09:07:33;;;;;;;43.07;25.50;;;6.60;99.90;;;;;;2609871;47;20976;-76
2022/01/17 09:09:59;;;;;;;34.00;22.97;;;6.70;99.90;;;;;;2610507;54;20416;-76
2022/01/17 09:12:26;;;;;;;38.30;23.33;;;6.70;99.90;;;;;;2610485;54;20444;-77
2022/01/17 09:14:51;;;;;;;37.10;22.80;;;6.70;99.90;;;;;;2610508;54;20415;-76
2022/01/17 09:17:17;;;;;;;39.90;17.70;;;6.70;99.90;;;;;;2610350;47;20542;-77
2022/01/17 09:19:46;;;;;;;43.07;26.87;;;6.70;99.90;;;;;;2611049;39;20535;-76
2022/01/17 09:22:11;;;;;;;33.27;20.37;;;6.80;99.90;;;;;;2611242;54;20448;-77
2022/01/17 09:24:38;;;;;;;43.73;25.23;;;6.80;99.90;;;;;;2609346;54;20410;-74
2022/01/17 09:27:06;;;;;;;38.53;25.67;;;6.80;99.90;;;;;;2614764;54;20411;-75
2022/01/17 09:29:33;;;;;;;36.77;25.57;;;6.80;99.90;;;;;;2611360;54;20443;-76
2022/01/17 09:31:59;;;;;;;37.73;26.80;;;6.80;99.90;;;;;;2609485;54;20507;-75
2022/01/17 09:34:26;;;;;;;36.37;24.20;;;6.80;99.90;;;;;;2611846;54;20491;-75
2022/01/17 09:36:53;;;;;;;33.93;23.50;;;6.90;99.90;;;;;;2610407;39;21211;-76
2022/01/17 09:39:20;;;;;;;31.10;18.60;;;6.80;99.90;;;;;;2610521;54;20924;-75
2022/01/17 09:41:46;;;;;;;26.33;16.40;;;6.80;99.90;;;;;;2609479;54;20415;-76
2022/01/17 09:44:13;;;;;;;31.20;20.07;;;6.90;99.90;;;;;;2611631;31;20976;-76
2022/01/17 09:46:46;;;;;;;35.27;20.67;;;6.80;99.90;;;;;;2610927;54;20443;-76
2022/01/17 09:49:20;;;;;;;23.40;17.30;;;6.80;99.90;;;;;;2610622;54;20955;-76
2022/01/17 09:54:29;;;;;;;29.40;18.43;;;6.80;99.90;;;;;;2609132;39;20789;-79
2022/01/17 09:56:59;;;;;;;30.97;17.73;;;6.80;99.90;;;;;;2615375;50;21276;-75
2022/01/17 09:59:25;;;;;;;31.87;22.83;;;6.70;99.90;;;;;;2614060;46;21315;-76
2022/01/17 10:01:51;;;;;;;22.57;14.63;;;6.70;99.90;;;;;;2614827;54;21059;-75
2022/01/17 10:04:18;;;;;;;35.50;22.77;;;6.60;99.90;;;;;;2613524;54;20916;-76
2022/01/17 10:06:57;;;;;;;37.70;23.57;;;6.60;99.90;;;;;;2611413;54;20399;-76
2022/01/17 10:09:25;;;;;;;31.90;18.90;;;6.70;99.90;;;;;;2612266;54;20403;-77
2022/01/17 10:12:09;;;;;;;34.37;22.20;;;6.60;99.90;;;;;;2611498;31;20869;-77
2022/01/17 10:15:05;;;;;;;47.03;24.80;;;6.50;99.90;;;;;;2611109;47;20463;-76
2022/01/17 10:17:47;;;;;;;39.60;25.70;;;6.40;99.90;;;;;;2610963;54;20550;-75
2022/01/17 10:20:17;;;;;;;43.57;24.60;;;6.60;99.90;;;;;;2610790;54;20392;-76
2022/01/17 10:22:58;;;;;;;31.63;19.73;;;6.60;99.90;;;;;;2611808;54;20407;-76
2022/01/17 10:25:49;;;;;;;24.60;14.67;;;6.50;99.90;;;;;;2610936;54;20427;-78
2022/01/17 10:31:33;;;;;;;31.93;17.57;;;6.30;99.90;;;;;;2612982;54;20519;-76
2022/01/17 10:36:45;;;;;;;30.87;18.93;;;6.30;99.90;;;;;;2610722;47;20431;-77
2022/01/17 10:39:11;;;;;;;23.97;18.30;;;6.30;99.90;;;;;;2646964;36;20490;-76
2022/01/17 10:41:38;;;;;;;34.70;21.53;;;6.20;99.90;;;;;;2611362;47;20403;-75
2022/01/17 10:44:05;;;;;;;21.87;15.33;;;6.20;99.90;;;;;;2611507;54;20395;-77
2022/01/17 10:46:31;;;;;;;42.37;19.53;;;6.30;99.90;;;;;;2610485;47;20419;-79
2022/01/17 10:48:58;;;;;;;35.30;18.43;;;6.30;99.90;;;;;;2610759;47;20443;-76
2022/01/17 10:51:33;;;;;;;36.80;25.07;;;6.30;99.90;;;;;;2610783;54;20450;-77
2022/01/17 10:54:12;;;;;;;41.17;23.30;;;6.30;99.90;;;;;;2610449;54;20404;-77
2022/01/17 10:56:50;;;;;;;42.83;24.90;;;6.30;99.90;;;;;;2611621;47;20447;-76
2022/01/17 10:59:28;;;;;;;34.00;24.53;;;6.30;99.90;;;;;;2611609;54;20411;-76
2022/01/17 11:01:54;;;;;;;38.60;25.27;;;6.30;99.90;;;;;;2609263;47;20432;-76
2022/01/17 11:04:41;;;;;;;44.23;26.53;;;6.30;99.90;;;;;;2610642;54;20424;-78
2022/01/17 11:07:09;;;;;;;41.90;23.50;;;6.40;99.90;;;;;;2609932;54;20431;-75
2022/01/17 11:09:48;;;;;;;39.67;23.30;;;6.40;99.90;;;;;;2610336;47;20404;-77
2022/01/17 11:12:17;;;;;;;44.03;20.77;;;6.40;99.90;;;;;;2609375;54;20951;-76
2022/01/17 11:14:45;;;;;;;37.93;25.80;;;6.50;99.90;;;;;;2610418;54;20435;-76
2022/01/17 11:17:21;;;;;;;41.73;26.90;;;6.60;99.90;;;;;;2610124;47;20986;-75
2022/01/17 11:20:04;;;;;;;38.80;22.30;;;6.70;99.90;;;;;;2610544;54;20578;-78
2022/01/17 11:22:40;;;;;;;44.17;25.30;;;6.80;99.90;;;;;;2608673;39;20867;-77
2022/01/17 11:25:09;;;;;;;41.27;23.47;;;6.80;99.90;;;;;;2607145;54;20422;-76
2022/01/17 11:27:35;;;;;;;38.53;25.10;;;6.70;99.90;;;;;;2608221;54;20409;-77
2022/01/17 11:30:04;;;;;;;38.13;24.97;;;6.70;99.90;;;;;;2609106;54;20447;-77
2022/01/17 11:32:31;;;;;;;29.80;20.13;;;6.80;99.90;;;;;;2607323;47;20562;-77
2022/01/17 11:35:00;;;;;;;36.60;21.00;;;6.70;99.90;;;;;;2608098;54;20407;-77
2022/01/17 11:37:27;;;;;;;40.23;23.37;;;6.70;99.90;;;;;;2609170;54;20415;-76
2022/01/17 11:39:56;;;;;;;47.83;25.20;;;6.70;99.90;;;;;;2608153;54;20412;-76
2022/01/17 11:42:35;;;;;;;37.70;23.90;;;6.70;99.90;;;;;;2607938;54;20396;-76
2022/01/17 11:45:06;;;;;;;36.20;22.30;;;6.70;99.90;;;;;;2610229;54;20410;-76
2022/01/17 11:47:56;;;;;;;33.00;22.70;;;6.70;99.90;;;;;;2610709;47;21427;-76
2022/01/17 11:50:28;;;;;;;49.37;22.00;;;6.80;99.90;;;;;;2609695;47;20428;-76
2022/01/17 11:53:12;;;;;;;48.70;18.23;;;6.80;99.90;;;;;;2607688;47;21993;-76
2022/01/17 11:55:46;;;;;;;31.07;15.60;;;6.80;99.90;;;;;;2609351;54;20543;-77
2022/01/17 11:58:32;;;;;;;30.23;18.70;;;6.70;99.90;;;;;;2609422;54;20417;-76
2022/01/17 12:03:54;;;;;;;27.03;15.47;;;6.70;99.90;;;;;;2615309;54;20466;-76
2022/01/17 12:06:37;;;;;;;39.83;19.57;;;6.70;99.90;;;;;;2614442;54;20542;-77
2022/01/17 12:09:24;;;;;;;36.70;19.70;;;6.70;99.90;;;;;;2611633;54;20414;-75
2022/01/17 12:12:12;;;;;;;26.00;17.23;;;6.90;99.90;;;;;;2612388;54;20402;-77
2022/01/17 12:14:58;;;;;;;34.27;15.27;;;7.00;99.90;;;;;;2611443;54;20430;-75
2022/01/17 12:17:27;;;;;;;24.63;16.50;;;6.90;99.90;;;;;;2609577;54;20447;-76
2022/01/17 12:20:13;;;;;;;29.90;17.50;;;6.80;99.90;;;;;;2612047;46;20462;-79
2022/01/17 12:22:43;;;;;;;32.73;16.87;;;6.80;99.90;;;;;;2610270;54;20411;-76
2022/01/17 12:25:25;;;;;;;25.80;16.83;;;6.90;99.90;;;;;;2610744;47;20431;-76
2022/01/17 12:28:16;;;;;;;23.07;17.17;;;7.00;99.90;;;;;;2611073;46;21450;-75
2022/01/17 12:30:51;;;;;;;30.70;17.17;;;6.90;99.90;;;;;;2610242;47;20438;-76
2022/01/17 12:33:29;;;;;;;28.77;15.97;;;7.00;99.90;;;;;;2610778;54;21495;-75
2022/01/17 12:36:00;;;;;;;19.77;13.63;;;7.00;99.90;;;;;;2610380;47;20423;-77
2022/01/17 12:38:32;;;;;;;20.63;15.07;;;7.10;99.90;;;;;;2610499;54;20403;-77
2022/01/17 12:40:58;;;;;;;19.60;11.00;;;7.00;99.90;;;;;;2611141;47;20446;-75
2022/01/17 12:43:32;;;;;;;32.13;13.43;;;6.90;99.90;;;;;;2610335;47;20427;-76
2022/01/17 12:46:02;;;;;;;27.80;16.10;;;6.90;99.90;;;;;;2612562;39;20835;-76
2022/01/17 12:48:31;;;;;;;31.33;15.10;;;6.90;99.90;;;;;;2610857;54;20408;-76
2022/01/17 12:51:00;;;;;;;18.10;11.03;;;7.00;99.90;;;;;;2610860;47;20420;-77
2022/01/17 12:53:28;;;;;;;31.73;17.13;;;7.00;99.90;;;;;;2610402;47;20418;-78
2022/01/17 12:55:57;;;;;;;26.43;17.50;;;7.10;99.90;;;;;;2611659;54;20375;-76
2022/01/17 12:58:46;;;;;;;36.87;16.70;;;7.10;99.90;;;;;;2611253;54;21441;-75
2022/01/17 13:01:14;;;;;;;28.33;16.43;;;7.10;99.90;;;;;;2609869;54;20436;-76
2022/01/17 13:03:43;;;;;;;29.33;17.73;;;7.10;99.90;;;;;;2609724;47;20439;-80
2022/01/17 13:06:13;;;;;;;26.73;16.60;;;7.10;99.90;;;;;;2609844;47;20408;-75
2022/01/17 13:08:45;;;;;;;27.77;17.60;;;7.00;99.90;;;;;;2609875;54;20399;-78
2022/01/17 13:11:17;;;;;;;27.40;17.00;;;7.10;99.90;;;;;;2608959;54;20410;-77